Time;durP1;ratioP1;P1;durP2;ratioP2;P2;SDS_P1;SDS_P2;PMS_P1;PMS_P2;Temp;Humidity;BMP_temperature;BMP_pressure;BME280_temperature;BME280_humidity;BME280_pressure;Samples;Min_cycle;Max_cycle;Signal;HPM_P1;HPM_P2
2021/10/05 00:00:40;;;;;;;;;;;;;;;12.60;55.97;100956.38;5111782;28;19950;-22
2021/10/05 00:03:06;;;;;;;;;;;;;;;12.41;56.85;100958.91;5111740;28;19961;-22
2021/10/05 00:05:31;;;;;;;;;;;;;;;12.70;56.70;100966.66;5093750;28;19994;-22
2021/10/05 00:07:57;;;;;;;;;;;;;;;12.65;56.59;100964.63;5111839;28;19918;-23
2021/10/05 00:10:22;;;;;;;;;;;;;;;12.17;57.61;100967.56;5111413;28;20304;-22
2021/10/05 00:12:47;;;;;;;;;;;;;;;12.02;58.42;100960.59;5111039;28;19918;-23
2021/10/05 00:15:13;;;;;;;;;;;;;;;11.73;59.17;100966.28;5111611;28;19954;-23
2021/10/05 00:17:38;;;;;;;;;;;;;;;11.95;58.35;100959.78;5111343;28;19922;-22
2021/10/05 00:20:04;;;;;;;;;;;;;;;12.20;57.89;100967.19;5111463;28;19919;-22
2021/10/05 00:22:30;;;;;;;;;;;;;;;12.32;56.96;100965.50;5111313;28;19984;-22
2021/10/05 00:24:55;;;;;;;;;;;;;;;12.00;58.33;100956.50;5111128;28;20303;-22
2021/10/05 00:27:20;;;;;;;;;;;;;;;11.79;59.07;100954.78;5111770;28;19912;-22
2021/10/05 00:29:46;;;;;;;;;;;;;;;11.62;59.86;100960.53;5111187;28;20440;-23
2021/10/05 00:32:11;;;;;;;;;;;;;;;12.00;58.56;100967.19;5111005;28;19916;-22
2021/10/05 00:34:36;;;;;;;;;;;;;;;11.98;58.10;100964.72;5110813;28;20344;-22
2021/10/05 00:37:01;;;;;;;;;;;;;;;11.97;58.03;100957.72;5092969;28;19915;-22
2021/10/05 00:39:27;;;;;;;;;;;;;;;11.99;58.59;100958.34;5111092;28;20688;-22
2021/10/05 00:41:53;;;;;;;;;;;;;;;12.33;56.88;100950.28;5111013;28;19919;-22
2021/10/05 00:44:28;;;;;;;;;;;;;;;11.99;57.77;100952.16;5111051;28;20351;-22
2021/10/05 00:46:53;;;;;;;;;;;;;;;12.10;57.33;100950.72;5110770;28;19916;-22
2021/10/05 00:49:18;;;;;;;;;;;;;;;11.74;57.71;100946.59;5110897;28;19915;-22
2021/10/05 00:51:44;;;;;;;;;;;;;;;11.37;59.73;100948.78;5110917;28;20030;-22
2021/10/05 00:54:09;;;;;;;;;;;;;;;11.02;61.82;100957.72;5069446;28;19923;-23
2021/10/05 00:56:34;;;;;;;;;;;;;;;10.96;62.88;100957.72;5090494;28;19912;-22
2021/10/05 00:58:59;;;;;;;;;;;;;;;11.06;62.58;100950.16;5090373;28;19912;-22
2021/10/05 01:01:25;;;;;;;;;;;;;;;10.95;63.02;100956.91;5090036;28;19919;-22
2021/10/05 01:03:50;;;;;;;;;;;;;;;10.91;63.07;100958.31;5090709;28;19916;-22
2021/10/05 01:06:15;;;;;;;;;;;;;;;11.04;62.09;100944.19;5090037;28;19912;-22
2021/10/05 01:08:41;;;;;;;;;;;;;;;11.60;60.45;100946.56;5089701;28;19918;-22
2021/10/05 01:11:06;;;;;;;;;;;;;;;10.69;63.22;100952.25;5090205;28;19939;-22
2021/10/05 01:13:32;;;;;;;;;;;;;;;11.03;61.88;100945.19;5090077;28;20402;-22
2021/10/05 01:15:57;;;;;;;;;;;;;;;11.26;61.11;100947.53;5089961;28;19939;-22
2021/10/05 01:18:23;;;;;;;;;;;;;;;11.42;60.44;100932.97;5090068;28;20364;-22
2021/10/05 01:20:55;;;;;;;;;;;;;;;11.44;59.99;100936.25;5089628;28;19916;-22
2021/10/05 01:23:21;;;;;;;;;;;;;;;11.60;59.65;100943.88;5089354;28;19953;-22
2021/10/05 01:25:47;;;;;;;;;;;;;;;11.34;60.43;100946.50;5071924;28;19908;-22
2021/10/05 01:28:12;;;;;;;;;;;;;;;10.84;61.87;100957.44;5089809;28;19912;-23
2021/10/05 01:30:37;;;;;;;;;;;;;;;10.37;63.66;100954.53;5089394;28;19912;-22
2021/10/05 01:33:02;;;;;;;;;;;;;;;10.27;63.67;100956.69;5089732;28;20308;-21
2021/10/05 01:35:28;;;;;;;;;;;;;;;11.02;60.05;100948.91;5089923;28;19927;-22
2021/10/05 01:37:53;;;;;;;;;;;;;;;11.13;58.19;100958.16;5089647;28;20750;-22
2021/10/05 01:40:19;;;;;;;;;;;;;;;10.71;61.32;100958.22;5089797;28;19959;-22
2021/10/05 01:42:44;;;;;;;;;;;;;;;9.70;62.27;100952.34;5089278;28;19916;-23
2021/10/05 01:45:09;;;;;;;;;;;;;;;9.11;64.57;100946.22;5089528;28;19966;-22
2021/10/05 01:47:34;;;;;;;;;;;;;;;9.04;64.71;100945.34;5089487;28;19951;-22
2021/10/05 01:50:00;;;;;;;;;;;;;;;8.83;65.01;100954.91;5089674;28;19966;-22
2021/10/05 01:52:25;;;;;;;;;;;;;;;8.84;65.08;100953.06;5089537;28;20007;-22
2021/10/05 01:54:50;;;;;;;;;;;;;;;8.89;64.69;100956.00;5101388;28;20311;-22
2021/10/05 01:57:16;;;;;;;;;;;;;;;8.93;64.89;100954.63;5109841;28;19912;-22
2021/10/05 01:59:41;;;;;;;;;;;;;;;9.65;62.47;100953.75;5109642;28;19923;-23
2021/10/05 02:02:06;;;;;;;;;;;;;;;9.47;63.05;100947.22;5109862;28;19916;-22
2021/10/05 02:04:32;;;;;;;;;;;;;;;9.22;64.25;100943.06;5109860;28;19916;-22
2021/10/05 02:06:57;;;;;;;;;;;;;;;9.00;65.45;100947.53;5109620;28;20788;-22
2021/10/05 02:09:22;;;;;;;;;;;;;;;8.90;66.14;100948.84;5109832;28;19916;-27
2021/10/05 02:11:48;;;;;;;;;;;;;;;8.94;66.43;100947.47;5109675;28;20442;-22
2021/10/05 02:14:13;;;;;;;;;;;;;;;9.77;64.12;100945.25;5109546;28;19912;-22
2021/10/05 02:16:38;;;;;;;;;;;;;;;9.62;64.71;100943.50;5109494;28;19922;-22
2021/10/05 02:19:04;;;;;;;;;;;;;;;9.59;64.54;100943.03;5109612;28;20435;-22
2021/10/05 02:21:29;;;;;;;;;;;;;;;9.48;65.41;100944.38;5109488;28;19912;-22
2021/10/05 02:26:40;;;;;;;;;;;;;;;9.47;65.48;100939.22;5109461;28;19960;-22
2021/10/05 02:29:05;;;;;;;;;;;;;;;9.62;65.21;100943.50;5109828;28;19918;-22
2021/10/05 02:31:31;;;;;;;;;;;;;;;9.27;66.03;100944.34;5109308;28;20322;-22
2021/10/05 02:33:57;;;;;;;;;;;;;;;8.77;65.96;100942.34;5109661;28;19916;-22
2021/10/05 02:36:22;;;;;;;;;;;;;;;8.77;66.00;100953.00;5113719;28;19916;-22
2021/10/05 02:38:47;;;;;;;;;;;;;;;8.97;65.08;100944.41;5113791;28;20032;-22
2021/10/05 02:41:13;;;;;;;;;;;;;;;9.72;62.24;100952.97;5113207;28;20332;-22
2021/10/05 02:43:38;;;;;;;;;;;;;;;9.59;63.12;100932.38;5113320;28;19918;-22
2021/10/05 02:46:03;;;;;;;;;;;;;;;8.79;63.33;100958.13;5113207;28;19918;-22
2021/10/05 02:48:29;;;;;;;;;;;;;;;8.36;65.06;100949.94;5094926;28;20024;-22
2021/10/05 02:50:54;;;;;;;;;;;;;;;8.97;63.39;100949.72;5112963;28;19918;-22
2021/10/05 02:53:19;;;;;;;;;;;;;;;9.39;62.07;100948.16;5113180;28;19961;-23
2021/10/05 02:55:47;;;;;;;;;;;;;;;9.81;61.88;100959.84;5112794;28;20360;-22
2021/10/05 02:58:12;;;;;;;;;;;;;;;9.84;62.69;100959.44;5113111;28;19912;-22
2021/10/05 03:00:37;;;;;;;;;;;;;;;9.23;64.75;100959.88;5113090;28;19915;-22
2021/10/05 03:03:02;;;;;;;;;;;;;;;9.04;65.70;100961.28;5112889;28;19918;-22
2021/10/05 03:05:28;;;;;;;;;;;;;;;8.87;66.00;100967.81;5112894;28;19968;-22
2021/10/05 03:07:53;;;;;;;;;;;;;;;8.76;66.18;100961.97;5112987;28;19918;-23
2021/10/05 03:10:18;;;;;;;;;;;;;;;8.80;66.18;100973.06;5113359;28;19911;-22
2021/10/05 03:12:43;;;;;;;;;;;;;;;9.09;64.80;100958.88;5112509;28;20391;-22
2021/10/05 03:15:09;;;;;;;;;;;;;;;9.27;63.69;100961.13;5113249;28;19912;-23
2021/10/05 03:17:34;;;;;;;;;;;;;;;9.36;62.75;100959.19;5112634;28;20280;-22
2021/10/05 03:19:59;;;;;;;;;;;;;;;8.49;64.92;100968.75;5094642;28;19968;-22
2021/10/05 03:22:25;;;;;;;;;;;;;;;8.36;65.17;100957.94;5094156;28;19916;-22
2021/10/05 03:24:50;;;;;;;;;;;;;;;8.65;63.44;100973.91;5112194;28;19930;-22
2021/10/05 03:27:15;;;;;;;;;;;;;;;8.86;62.65;100977.66;5112407;28;20318;-22
2021/10/05 03:29:40;;;;;;;;;;;;;;;8.74;63.34;100968.47;5112819;28;19915;-22
2021/10/05 03:32:06;;;;;;;;;;;;;;;9.07;63.08;100976.88;5112373;28;19922;-22
2021/10/05 03:34:31;;;;;;;;;;;;;;;9.30;62.75;100974.09;5112142;28;19916;-22
2021/10/05 03:36:56;;;;;;;;;;;;;;;8.55;64.08;100973.34;5111342;28;19961;-22
2021/10/05 03:39:22;;;;;;;;;;;;;;;8.08;66.28;100971.81;5112468;28;20386;-21
2021/10/05 03:41:47;;;;;;;;;;;;;;;8.73;65.24;100978.31;5112075;28;20042;-22
2021/10/05 03:44:12;;;;;;;;;;;;;;;8.93;64.16;100978.56;5112221;28;20386;-22
2021/10/05 03:46:37;;;;;;;;;;;;;;;8.74;64.65;100977.28;5111380;28;19986;-22
2021/10/05 03:49:03;;;;;;;;;;;;;;;9.16;63.02;100975.75;5112283;28;19939;-22
2021/10/05 03:51:28;;;;;;;;;;;;;;;8.37;65.66;100980.81;5112143;28;19915;-22
2021/10/05 03:53:53;;;;;;;;;;;;;;;8.27;66.21;100975.75;5089417;28;19920;-22
2021/10/05 03:56:19;;;;;;;;;;;;;;;8.62;66.10;100979.59;5091531;28;20706;-22
2021/10/05 03:58:44;;;;;;;;;;;;;;;8.32;66.58;100968.09;5091472;28;19959;-22
2021/10/05 04:01:09;;;;;;;;;;;;;;;8.32;66.31;100973.41;5091376;28;19993;-22
2021/10/05 04:03:35;;;;;;;;;;;;;;;9.15;64.30;100974.09;5091307;28;19920;-22
2021/10/05 04:06:00;;;;;;;;;;;;;;;9.27;63.16;100976.28;5091475;28;19919;-23
2021/10/05 04:08:25;;;;;;;;;;;;;;;8.10;66.49;100971.63;5091519;28;20012;-22
2021/10/05 04:10:50;;;;;;;;;;;;;;;8.07;67.03;100974.63;5091456;28;19927;-22
2021/10/05 04:13:16;;;;;;;;;;;;;;;8.42;66.63;100976.66;5091293;28;19915;-22
2021/10/05 04:15:42;;;;;;;;;;;;;;;8.30;66.05;100978.06;5091109;28;20025;-22
2021/10/05 04:18:07;;;;;;;;;;;;;;;9.01;64.78;100977.63;5091060;28;19919;-22
2021/10/05 04:20:32;;;;;;;;;;;;;;;8.48;65.43;100979.56;5091068;28;20438;-21
2021/10/05 04:22:58;;;;;;;;;;;;;;;8.62;65.66;100989.38;5090987;28;19916;-21
2021/10/05 04:25:23;;;;;;;;;;;;;;;8.31;66.83;100987.69;5091009;28;20481;-21
2021/10/05 04:27:48;;;;;;;;;;;;;;;8.58;65.79;100988.09;5091015;28;19912;-22
2021/10/05 04:30:14;;;;;;;;;;;;;;;8.98;64.33;100999.28;5091238;28;20314;-22
2021/10/05 04:32:39;;;;;;;;;;;;;;;9.09;63.90;100996.13;5090607;28;19915;-22
2021/10/05 04:35:05;;;;;;;;;;;;;;;8.68;65.49;100993.97;5090779;28;19943;-21
2021/10/05 04:37:30;;;;;;;;;;;;;;;9.00;64.64;101000.75;5090580;28;20383;-21
2021/10/05 04:39:55;;;;;;;;;;;;;;;9.43;62.65;100986.72;5091134;28;19979;-22
2021/10/05 04:42:20;;;;;;;;;;;;;;;9.47;62.57;101001.28;5090664;28;19920;-22
2021/10/05 04:44:46;;;;;;;;;;;;;;;9.39;62.85;101004.06;5090470;28;19986;-21
2021/10/05 04:47:11;;;;;;;;;;;;;;;8.73;65.30;101007.56;5090503;28;19965;-21
2021/10/05 04:49:36;;;;;;;;;;;;;;;9.22;64.21;101006.94;5090328;28;19947;-22
2021/10/05 04:52:02;;;;;;;;;;;;;;;9.33;63.99;101008.31;5090587;28;20278;-21
2021/10/05 04:54:27;;;;;;;;;;;;;;;9.02;65.44;101016.53;5099250;28;19973;-22
2021/10/05 04:56:53;;;;;;;;;;;;;;;9.28;64.66;101015.22;5092114;28;19976;-22
2021/10/05 04:59:18;;;;;;;;;;;;;;;9.43;64.38;101014.16;5110661;28;20039;-22
2021/10/05 05:01:43;;;;;;;;;;;;;;;9.58;63.86;101018.59;5110642;28;20393;-21
2021/10/05 05:04:10;;;;;;;;;;;;;;;9.83;63.17;101022.56;5110542;28;19968;-22
2021/10/05 05:06:35;;;;;;;;;;;;;;;9.66;63.76;101023.81;5110376;28;19961;-21
2021/10/05 05:09:00;;;;;;;;;;;;;;;9.53;64.72;101029.81;5110648;28;19919;-21
2021/10/05 05:11:26;;;;;;;;;;;;;;;9.64;64.52;101031.16;5110467;28;19994;-22
2021/10/05 05:13:51;;;;;;;;;;;;;;;9.79;64.10;101036.47;5111112;28;20703;-21
2021/10/05 05:16:16;;;;;;;;;;;;;;;10.30;62.69;101044.31;5110322;28;19916;-21
2021/10/05 05:18:42;;;;;;;;;;;;;;;10.40;62.58;101030.63;5110134;28;19962;-22
2021/10/05 05:21:07;;;;;;;;;;;;;;;10.48;62.41;101024.34;5110338;28;20303;-22
2021/10/05 05:23:33;;;;;;;;;;;;;;;10.16;63.76;101024.69;5110335;28;19919;-22
2021/10/05 05:25:58;;;;;;;;;;;;;;;10.01;64.32;101022.13;5092348;28;19916;-22
2021/10/05 05:28:23;;;;;;;;;;;;;;;9.54;66.13;101015.50;5110306;28;19915;-21
2021/10/05 05:30:48;;;;;;;;;;;;;;;9.46;66.34;101012.97;5109668;28;20765;-22
2021/10/05 05:33:14;;;;;;;;;;;;;;;9.91;64.87;101010.09;5109995;28;19990;-21
2021/10/05 05:35:39;;;;;;;;;;;;;;;10.05;63.82;101018.06;5110310;28;20372;-22
2021/10/05 05:38:04;;;;;;;;;;;;;;;10.25;62.83;101022.69;5110063;28;19922;-22
2021/10/05 05:40:30;;;;;;;;;;;;;;;10.44;62.54;101022.06;5109903;28;19911;-21
2021/10/05 05:42:55;;;;;;;;;;;;;;;10.88;62.19;101032.59;5109984;28;19916;-22
2021/10/05 05:45:20;;;;;;;;;;;;;;;11.01;61.92;101035.31;5110119;28;20216;-21
2021/10/05 05:47:46;;;;;;;;;;;;;;;10.78;62.33;101038.28;5109846;28;19916;-22
2021/10/05 05:50:11;;;;;;;;;;;;;;;10.16;64.04;101026.53;5110023;28;19911;-22
2021/10/05 05:52:36;;;;;;;;;;;;;;;9.79;64.44;101026.63;5109679;28;20382;-21
2021/10/05 05:55:02;;;;;;;;;;;;;;;9.88;64.37;101032.63;5109709;28;19919;-22
2021/10/05 05:57:27;;;;;;;;;;;;;;;10.01;64.73;101040.78;5109899;28;19912;-21
2021/10/05 05:59:53;;;;;;;;;;;;;;;10.10;64.98;101040.63;5109760;28;19934;-21
2021/10/05 06:02:18;;;;;;;;;;;;;;;10.32;64.75;101039.63;5109594;28;20008;-22
2021/10/05 06:04:43;;;;;;;;;;;;;;;10.54;63.83;101055.56;5109679;28;19959;-21
2021/10/05 06:07:10;;;;;;;;;;;;;;;10.62;63.52;101055.41;5110135;28;19947;-22
2021/10/05 06:09:35;;;;;;;;;;;;;;;10.35;64.66;101051.75;5110765;28;20002;-22
2021/10/05 06:12:03;;;;;;;;;;;;;;;10.75;63.61;101055.50;5113881;28;20446;-21
2021/10/05 06:14:29;;;;;;;;;;;;;;;10.55;64.60;101065.22;5113764;28;19912;-22
2021/10/05 06:16:55;;;;;;;;;;;;;;;10.69;64.63;101072.31;5113607;28;19919;-21
2021/10/05 06:19:21;;;;;;;;;;;;;;;11.01;63.15;101065.53;5113896;28;20395;-21
2021/10/05 06:21:46;;;;;;;;;;;;;;;11.21;63.24;101062.94;5113645;28;19920;-21
2021/10/05 06:24:12;;;;;;;;;;;;;;;11.43;62.79;101069.00;5113812;28;19981;-22
2021/10/05 06:26:37;;;;;;;;;;;;;;;11.80;62.00;101063.34;5113305;28;20383;-26
2021/10/05 06:29:03;;;;;;;;;;;;;;;11.79;61.85;101070.56;5113551;28;19912;-21
2021/10/05 06:31:28;;;;;;;;;;;;;;;11.88;61.26;101065.84;5113490;28;19950;-22
2021/10/05 06:33:53;;;;;;;;;;;;;;;12.20;61.03;101074.16;5113385;28;19923;-22
2021/10/05 06:36:18;;;;;;;;;;;;;;;12.54;59.76;101074.94;5113347;28;19995;-22
2021/10/05 06:38:44;;;;;;;;;;;;;;;12.93;59.27;101074.06;5113164;28;20306;-21
2021/10/05 06:41:09;;;;;;;;;;;;;;;12.95;59.34;101079.22;5113276;28;19959;-21
2021/10/05 06:43:34;;;;;;;;;;;;;;;12.70;58.93;101074.53;5113327;28;20371;-21
2021/10/05 06:46:00;;;;;;;;;;;;;;;12.83;58.60;101084.38;5113340;28;20010;-21
2021/10/05 06:48:25;;;;;;;;;;;;;;;12.89;58.82;101088.06;5113128;28;19912;-21
2021/10/05 06:50:51;;;;;;;;;;;;;;;12.76;59.01;101092.41;5112954;28;19915;-21
2021/10/05 06:53:22;;;;;;;;;;;;;;;12.79;59.25;101105.41;5113224;28;19998;-21
2021/10/05 06:55:48;;;;;;;;;;;;;;;12.79;59.41;101099.22;5112845;28;19942;-22
2021/10/05 06:58:13;;;;;;;;;;;;;;;13.16;58.95;101105.75;5113284;28;20357;-21
2021/10/05 07:00:39;;;;;;;;;;;;;;;13.26;58.21;101102.63;5112688;28;20358;-21
2021/10/05 07:03:06;;;;;;;;;;;;;;;13.31;58.65;101097.47;5112852;28;20386;-22
2021/10/05 07:05:31;;;;;;;;;;;;;;;13.62;58.84;101098.59;5113170;28;19922;-22
2021/10/05 07:07:56;;;;;;;;;;;;;;;13.86;57.88;101091.66;5113075;28;19915;-22
2021/10/05 07:10:22;;;;;;;;;;;;;;;14.26;56.65;101094.06;5112932;28;19922;-22
2021/10/05 07:12:47;;;;;;;;;;;;;;;13.98;57.70;101100.66;5112533;28;19923;-21
2021/10/05 07:15:13;;;;;;;;;;;;;;;14.16;57.54;101096.41;5112635;28;20269;-22
2021/10/05 07:17:38;;;;;;;;;;;;;;;14.44;56.16;101101.34;5112758;28;19911;-21
2021/10/05 07:20:04;;;;;;;;;;;;;;;14.38;56.70;101095.00;5112241;28;19957;-22
2021/10/05 07:22:30;;;;;;;;;;;;;;;14.47;56.84;101095.56;5111323;28;19922;-22
2021/10/05 07:24:55;;;;;;;;;;;;;;;14.44;56.64;101094.16;5112346;28;19955;-22
2021/10/05 07:27:20;;;;;;;;;;;;;;;14.40;57.17;101098.28;5112553;28;19950;-21
2021/10/05 07:29:45;;;;;;;;;;;;;;;14.70;56.80;101086.09;5112413;28;20428;-21
2021/10/05 07:32:11;;;;;;;;;;;;;;;15.13;55.00;101087.94;5112498;28;19920;-21
2021/10/05 07:34:36;;;;;;;;;;;;;;;14.82;56.43;101087.81;5112030;28;19920;-21
2021/10/05 07:37:02;;;;;;;;;;;;;;;15.18;55.80;101086.22;5112472;28;19916;-21
2021/10/05 07:39:27;;;;;;;;;;;;;;;15.57;55.13;101092.16;5112645;28;19919;-22
2021/10/05 07:41:52;;;;;;;;;;;;;;;15.66;53.60;101092.66;5112139;28;20432;-22
2021/10/05 07:44:17;;;;;;;;;;;;;;;15.67;53.95;101089.75;5112130;28;19965;-22
2021/10/05 07:46:43;;;;;;;;;;;;;;;15.91;53.70;101097.91;5112378;28;19958;-22
2021/10/05 07:49:08;;;;;;;;;;;;;;;15.79;54.12;101102.44;5112109;28;19938;-21
2021/10/05 07:51:33;;;;;;;;;;;;;;;15.70;55.28;101093.03;5112068;28;19912;-21
2021/10/05 07:54:00;;;;;;;;;;;;;;;15.79;54.71;101094.34;5111659;28;20275;-22
2021/10/05 07:56:25;;;;;;;;;;;;;;;15.83;55.08;101095.53;5111847;28;19916;-21
2021/10/05 07:58:51;;;;;;;;;;;;;;;15.97;55.13;101099.69;5111513;28;19918;-21
2021/10/05 08:01:16;;;;;;;;;;;;;;;16.01;54.81;101098.16;5111530;28;19971;-21
2021/10/05 08:03:41;;;;;;;;;;;;;;;16.17;54.66;101094.00;5111033;28;20326;-22
2021/10/05 08:06:07;;;;;;;;;;;;;;;16.22;54.59;101096.84;5111753;28;19912;-22
2021/10/05 08:08:32;;;;;;;;;;;;;;;16.70;52.96;101089.63;5111799;28;20010;-22
2021/10/05 08:10:57;;;;;;;;;;;;;;;16.36;53.53;101081.28;5112056;28;20303;-22
2021/10/05 08:13:22;;;;;;;;;;;;;;;16.35;54.39;101082.34;5111570;28;20366;-22
2021/10/05 08:15:48;;;;;;;;;;;;;;;16.58;53.67;101083.41;5111535;28;19969;-21
2021/10/05 08:18:13;;;;;;;;;;;;;;;17.15;51.99;101089.00;5111665;28;20317;-22
2021/10/05 08:20:39;;;;;;;;;;;;;;;16.80;52.20;101081.78;5111155;28;19919;-21
2021/10/05 08:23:04;;;;;;;;;;;;;;;17.15;52.41;101089.00;5111170;28;19919;-21
2021/10/05 08:25:29;;;;;;;;;;;;;;;17.27;52.05;101095.19;5111444;28;19912;-21
2021/10/05 08:27:55;;;;;;;;;;;;;;;17.58;50.82;101086.91;5111387;28;20003;-22
2021/10/05 08:30:20;;;;;;;;;;;;;;;18.03;49.32;101088.84;5111424;28;19918;-21
2021/10/05 08:32:46;;;;;;;;;;;;;;;18.14;49.21;101089.81;5110332;28;20299;-22
2021/10/05 08:35:11;;;;;;;;;;;;;;;17.85;49.87;101081.75;5110939;28;20356;-21
2021/10/05 08:37:37;;;;;;;;;;;;;;;18.07;48.96;101080.00;5111026;28;19915;-21
2021/10/05 08:40:03;;;;;;;;;;;;;;;17.94;48.84;101080.31;5111004;28;20335;-22
2021/10/05 08:42:28;;;;;;;;;;;;;;;18.38;48.39;101069.69;5111228;28;19912;-22
2021/10/05 08:44:53;;;;;;;;;;;;;;;18.10;49.31;101083.28;5110881;28;19929;-21
2021/10/05 08:47:19;;;;;;;;;;;;;;;18.25;50.13;101064.66;5111020;28;20338;-21
2021/10/05 08:49:45;;;;;;;;;;;;;;;18.34;47.65;101068.56;5110929;28;19912;-21
2021/10/05 08:52:10;;;;;;;;;;;;;;;18.42;48.19;101070.84;5110724;28;19911;-21
2021/10/05 08:54:37;;;;;;;;;;;;;;;18.34;48.09;101063.16;5110362;28;20307;-21
2021/10/05 08:57:03;;;;;;;;;;;;;;;18.26;48.22;101071.66;5110640;28;20310;-21
2021/10/05 08:59:28;;;;;;;;;;;;;;;18.01;48.70;101072.06;5110508;28;19916;-22
2021/10/05 09:01:53;;;;;;;;;;;;;;;17.99;49.26;101066.91;5110649;28;19926;-21
2021/10/05 09:04:21;;;;;;;;;;;;;;;18.62;47.91;101056.81;5110664;28;19911;-22
2021/10/05 09:06:51;;;;;;;;;;;;;;;18.25;47.72;101059.25;5110229;28;19915;-22
2021/10/05 09:09:17;;;;;;;;;;;;;;;18.59;47.60;101053.78;5110437;28;19912;-21
2021/10/05 09:11:47;;;;;;;;;;;;;;;18.65;46.80;101052.81;5110409;28;19912;-22
2021/10/05 09:14:12;;;;;;;;;;;;;;;18.86;45.20;101048.56;5110242;28;19912;-22
2021/10/05 09:16:37;;;;;;;;;;;;;;;18.63;46.72;101049.53;5110224;28;20288;-21
2021/10/05 09:19:04;;;;;;;;;;;;;;;19.05;44.82;101049.06;5110227;28;19923;-22
2021/10/05 09:21:30;;;;;;;;;;;;;;;19.34;44.96;101049.66;5110094;28;19993;-22
2021/10/05 09:23:57;;;;;;;;;;;;;;;18.64;45.22;101037.69;5110248;28;19911;-22
2021/10/05 09:26:42;;;;;;;;;;;;;;;18.90;44.81;101040.75;5110175;28;19919;-22
2021/10/05 09:29:08;;;;;;;;;;;;;;;18.77;44.28;101040.00;5110237;28;19939;-21
2021/10/05 09:31:49;;;;;;;;;;;;;;;19.25;43.60;101040.38;5091899;28;19919;-21
2021/10/05 09:34:14;;;;;;;;;;;;;;;19.22;44.01;101040.88;5110138;28;20737;-21
2021/10/05 09:36:40;;;;;;;;;;;;;;;19.54;42.29;101040.97;5109981;28;19912;-22
2021/10/05 09:39:05;;;;;;;;;;;;;;;19.64;42.59;101048.38;5109886;28;19916;-21
2021/10/05 09:41:30;;;;;;;;;;;;;;;19.80;42.48;101046.66;5109957;28;19963;-22
2021/10/05 09:44:00;;;;;;;;;;;;;;;19.92;43.04;101047.31;5109267;28;20504;-21
2021/10/05 09:46:25;;;;;;;;;;;;;;;19.75;43.07;101043.91;5109918;28;19934;-21
2021/10/05 09:48:58;;;;;;;;;;;;;;;19.66;43.46;101048.94;5109706;28;19912;-21
2021/10/05 09:51:24;;;;;;;;;;;;;;;20.09;42.12;101051.78;5109955;28;20448;-22
2021/10/05 09:53:50;;;;;;;;;;;;;;;20.32;42.55;101040.56;5109708;28;19916;-22
2021/10/05 09:56:15;;;;;;;;;;;;;;;20.46;41.50;101043.66;5109820;28;19916;-21
2021/10/05 09:58:40;;;;;;;;;;;;;;;20.16;41.30;101044.25;5109553;28;20390;-23
2021/10/05 10:01:06;;;;;;;;;;;;;;;20.43;41.98;101050.44;5109591;28;19961;-21
2021/10/05 10:03:31;;;;;;;;;;;;;;;20.36;42.08;101055.22;5109668;28;19911;-22
2021/10/05 10:05:57;;;;;;;;;;;;;;;20.58;41.52;101046.19;5091497;28;20489;-21
2021/10/05 10:08:24;;;;;;;;;;;;;;;20.33;41.69;101044.09;5109613;28;19916;-21
2021/10/05 10:10:49;;;;;;;;;;;;;;;20.62;42.07;101037.28;5091383;28;19912;-21
2021/10/05 10:13:17;;;;;;;;;;;;;;;20.53;42.23;101038.81;5109756;28;19922;-21
2021/10/05 10:15:42;;;;;;;;;;;;;;;20.70;40.83;101052.25;5109657;28;19920;-21
2021/10/05 10:18:12;;;;;;;;;;;;;;;20.78;40.13;101048.19;5109610;28;19916;-21
2021/10/05 10:20:38;;;;;;;;;;;;;;;20.66;40.97;101043.00;5109151;28;20044;-21
2021/10/05 10:23:04;;;;;;;;;;;;;;;21.03;41.05;101039.38;5109508;28;19912;-21
2021/10/05 10:25:30;;;;;;;;;;;;;;;21.28;41.40;101038.66;5091108;28;20310;-21
2021/10/05 10:27:56;;;;;;;;;;;;;;;21.06;40.09;101031.53;5109370;28;19950;-22
2021/10/05 10:30:25;;;;;;;;;;;;;;;21.23;40.19;101031.31;5109492;28;20763;-21
2021/10/05 10:32:52;;;;;;;;;;;;;;;21.31;39.85;101037.28;5109126;28;19915;-21
2021/10/05 10:35:17;;;;;;;;;;;;;;;21.37;40.39;101037.06;5109251;28;19916;-21
2021/10/05 10:37:49;;;;;;;;;;;;;;;21.03;39.56;101031.25;5109610;28;19960;-21
2021/10/05 10:40:15;;;;;;;;;;;;;;;21.50;39.34;101024.91;5109437;28;19912;-21
2021/10/05 10:42:41;;;;;;;;;;;;;;;21.56;38.50;101023.84;5109171;28;19919;-22
2021/10/05 10:45:16;;;;;;;;;;;;;;;21.49;38.46;101025.16;5109203;28;19916;-22
2021/10/05 10:47:41;;;;;;;;;;;;;;;21.97;38.09;101023.88;5109078;28;19946;-22
2021/10/05 10:50:07;;;;;;;;;;;;;;;22.05;37.29;101023.31;5109230;28;20386;-22
2021/10/05 10:52:34;;;;;;;;;;;;;;;22.02;37.18;101010.25;5109001;28;19920;-22
2021/10/05 10:55:00;;;;;;;;;;;;;;;22.64;36.90;101012.94;5109545;28;20027;-22
2021/10/05 10:57:35;;;;;;;;;;;;;;;22.40;36.44;101018.97;5113043;28;20365;-21
2021/10/05 11:00:09;;;;;;;;;;;;;;;23.41;35.07;101021.56;5113288;28;19919;-21
2021/10/05 11:02:58;;;;;;;;;;;;;;;22.36;36.53;101026.03;5112700;28;20414;-21
2021/10/05 11:05:24;;;;;;;;;;;;;;;21.57;37.54;101020.03;5104253;28;19911;-21
2021/10/05 11:07:52;;;;;;;;;;;;;;;22.52;36.45;101007.78;5112834;28;19934;-21
2021/10/05 11:10:44;;;;;;;;;;;;;;;21.99;36.81;100999.97;5112959;28;19912;-22
2021/10/05 11:13:09;;;;;;;;;;;;;;;22.26;35.40;100996.16;5109757;28;20010;-21
2021/10/05 11:15:34;;;;;;;;;;;;;;;23.03;34.54;100995.94;5112831;28;19998;-21
2021/10/05 11:18:09;;;;;;;;;;;;;;;22.46;35.75;100987.97;5112600;28;19912;-21
2021/10/05 11:20:36;;;;;;;;;;;;;;;23.13;33.89;100995.06;5112393;28;19946;-21
2021/10/05 11:23:03;;;;;;;;;;;;;;;23.27;33.63;100986.00;5112403;28;19916;-22
2021/10/05 11:25:28;;;;;;;;;;;;;;;22.89;33.97;100990.25;5112606;28;20451;-22
2021/10/05 11:27:53;;;;;;;;;;;;;;;23.27;33.05;100986.00;5112491;28;19919;-21
2021/10/05 11:30:20;;;;;;;;;;;;;;;24.14;31.37;100983.72;5112510;28;19958;-21
2021/10/05 11:32:49;;;;;;;;;;;;;;;24.27;31.49;100980.31;5112185;28;20314;-21
2021/10/05 11:35:14;;;;;;;;;;;;;;;23.64;32.50;100990.13;5112283;28;19923;-22
2021/10/05 11:37:39;;;;;;;;;;;;;;;22.92;33.90;100981.53;5112293;28;19912;-21
2021/10/05 11:40:05;;;;;;;;;;;;;;;23.00;34.50;100980.13;5094144;28;19954;-21
2021/10/05 11:42:30;;;;;;;;;;;;;;;22.61;34.41;100969.97;5112154;28;19919;-21
2021/10/05 11:44:56;;;;;;;;;;;;;;;22.96;34.06;100981.78;5112002;28;19986;-22
2021/10/05 11:47:22;;;;;;;;;;;;;;;23.89;32.10;100980.16;5112020;28;19912;-21
2021/10/05 11:49:47;;;;;;;;;;;;;;;23.54;32.83;100978.47;5112098;28;19916;-21
2021/10/05 11:52:20;;;;;;;;;;;;;;;23.54;33.21;100967.56;5111998;28;20018;-22
2021/10/05 11:54:45;;;;;;;;;;;;;;;23.66;32.75;100957.97;5111719;28;19919;-21
2021/10/05 11:57:14;;;;;;;;;;;;;;;23.41;33.39;100966.31;5112120;28;20383;-21
2021/10/05 11:59:39;;;;;;;;;;;;;;;24.17;32.58;100966.78;5111946;28;20390;-21
2021/10/05 12:02:08;;;;;;;;;;;;;;;23.39;33.25;100965.78;5111848;28;19911;-22
2021/10/05 12:04:33;;;;;;;;;;;;;;;23.98;32.08;100972.16;5111741;28;19922;-21
2021/10/05 12:07:00;;;;;;;;;;;;;;;23.40;32.94;100962.78;5110964;28;19916;-21
2021/10/05 12:09:26;;;;;;;;;;;;;;;24.16;31.39;100957.00;5111781;28;19921;-21
2021/10/05 12:11:55;;;;;;;;;;;;;;;23.42;32.00;100951.63;5111742;28;19915;-22
2021/10/05 12:14:22;;;;;;;;;;;;;;;22.83;32.68;100954.09;5111399;28;19915;-21
2021/10/05 12:16:54;;;;;;;;;;;;;;;23.16;32.62;100961.88;5111466;28;19916;-21
2021/10/05 12:19:24;;;;;;;;;;;;;;;24.05;31.30;100946.22;5111473;28;19916;-21
2021/10/05 12:21:57;;;;;;;;;;;;;;;24.58;29.51;100947.28;5111538;28;19918;-22
2021/10/05 12:24:32;;;;;;;;;;;;;;;24.38;30.42;100943.66;5111489;28;19916;-22
2021/10/05 12:26:58;;;;;;;;;;;;;;;24.73;29.25;100944.38;5111167;28;20010;-21
2021/10/05 12:29:23;;;;;;;;;;;;;;;24.54;29.86;100940.78;5111513;28;19995;-22
2021/10/05 12:31:52;;;;;;;;;;;;;;;23.36;30.98;100952.75;5111084;28;20679;-21
2021/10/05 12:34:18;;;;;;;;;;;;;;;23.26;31.01;100951.72;5111292;28;20302;-22
2021/10/05 12:36:43;;;;;;;;;;;;;;;24.31;29.56;100943.19;5110993;28;19915;-21